createdAt,value
2022-08-23T00:03:59.943Z,21.15
2022-08-23T00:09:23.704Z,20.20
2022-08-23T00:14:49.305Z,24.67
2022-08-23T00:20:14.962Z,27.80
2022-08-23T00:25:36.821Z,23.13
2022-08-23T00:30:59.589Z,20.00
2022-08-23T00:36:21.405Z,25.13
2022-08-23T00:41:44.201Z,24.02
2022-08-23T00:47:07.774Z,21.17
2022-08-23T00:52:38.070Z,30.40
2022-08-23T00:58:01.541Z,22.55
2022-08-23T01:03:25.947Z,26.63
2022-08-23T01:08:54.703Z,24.57
2022-08-23T01:14:19.654Z,25.02
2022-08-23T01:19:48.595Z,27.67
2022-08-23T01:25:14.244Z,23.77
2022-08-23T01:30:36.341Z,22.43
2022-08-23T01:36:00.991Z,24.40
2022-08-23T01:41:26.017Z,25.48
2022-08-23T01:46:47.871Z,24.80
2022-08-23T01:52:09.699Z,25.33
2022-08-23T01:57:33.797Z,18.83
2022-08-23T02:02:55.944Z,21.65
2022-08-23T02:08:17.805Z,15.35
2022-08-23T02:13:39.637Z,16.42
2022-08-23T02:19:03.028Z,19.45
2022-08-23T02:24:25.775Z,19.98
2022-08-23T02:29:47.717Z,18.70
2022-08-23T02:35:09.624Z,21.08
2022-08-23T02:40:31.468Z,23.10
2022-08-23T02:45:53.300Z,21.20
2022-08-23T02:51:15.830Z,18.08
2022-08-23T02:56:37.706Z,18.45
2022-08-23T03:01:59.604Z,20.70
2022-08-23T03:07:21.488Z,20.42
2022-08-23T03:12:43.320Z,19.10
2022-08-23T03:18:05.982Z,20.40
2022-08-23T03:23:28.444Z,18.50
2022-08-23T03:28:50.346Z,21.80
2022-08-23T03:34:12.393Z,17.92
2022-08-23T03:39:34.307Z,21.25
2022-08-23T03:44:56.931Z,20.60
2022-08-23T03:50:24.483Z,23.02
2022-08-23T03:55:46.707Z,20.75
2022-08-23T04:01:08.525Z,16.92
2022-08-23T04:06:30.352Z,24.52
2022-08-23T04:11:52.155Z,15.15
2022-08-23T04:17:15.109Z,21.70
2022-08-23T04:22:37.011Z,13.45
2022-08-23T04:27:59.659Z,17.33
2022-08-23T04:33:22.252Z,13.85
2022-08-23T04:38:44.092Z,12.02
2022-08-23T04:44:05.985Z,11.02
2022-08-23T04:49:27.776Z,15.43
2022-08-23T04:54:49.649Z,13.57
2022-08-23T05:00:13.059Z,10.32
2022-08-23T05:05:34.880Z,17.13
2022-08-23T05:11:00.429Z,15.65
2022-08-23T05:16:22.315Z,13.90
2022-08-23T05:21:44.363Z,15.65
2022-08-23T05:27:07.877Z,12.27
2022-08-23T05:32:33.650Z,14.63
2022-08-23T05:37:55.714Z,14.30
2022-08-23T05:43:17.895Z,13.38
2022-08-23T05:48:43.241Z,15.88
2022-08-23T05:54:08.010Z,15.40
2022-08-23T05:59:30.798Z,15.82
2022-08-23T06:04:57.159Z,18.58
2022-08-23T06:10:19.637Z,17.67
2022-08-23T06:15:44.920Z,17.88
2022-08-23T06:21:09.197Z,17.38
2022-08-23T06:26:34.516Z,18.95
2022-08-23T06:31:56.348Z,19.48
2022-08-23T06:37:18.252Z,16.70
2022-08-23T06:42:40.580Z,13.57
2022-08-23T06:48:02.715Z,13.60
2022-08-23T06:53:24.712Z,13.45
2022-08-23T06:58:46.534Z,17.83
2022-08-23T07:04:11.084Z,13.63
2022-08-23T07:09:33.526Z,14.93
2022-08-23T07:14:55.355Z,17.13
2022-08-23T07:20:17.375Z,21.38
2022-08-23T07:25:42.251Z,16.58
2022-08-23T07:31:12.377Z,19.13
2022-08-23T07:36:37.857Z,15.85
2022-08-23T07:42:01.359Z,15.75
2022-08-23T07:47:48.249Z,14.65
2022-08-23T07:53:11.984Z,17.42
2022-08-23T07:58:34.147Z,14.95
2022-08-23T08:03:58.720Z,15.48
2022-08-23T08:09:20.584Z,13.68
2022-08-23T08:14:42.413Z,14.85
2022-08-23T08:20:04.985Z,14.50
2022-08-23T08:25:26.924Z,17.55
2022-08-23T08:30:48.726Z,17.63
2022-08-23T08:36:36.177Z,14.50
2022-08-23T08:42:05.276Z,14.75
2022-08-23T08:47:40.852Z,15.15
2022-08-23T08:53:13.069Z,14.38
2022-08-23T08:58:49.220Z,23.00
2022-08-23T09:04:11.502Z,21.95
2022-08-23T09:10:05.195Z,12.00
2022-08-23T09:15:40.497Z,16.90
2022-08-23T09:21:05.520Z,15.57
2022-08-23T09:26:30.845Z,19.92
2022-08-23T09:37:18.596Z,14.88
2022-08-23T09:42:42.051Z,20.42
2022-08-23T09:48:05.711Z,20.92
2022-08-23T09:53:27.564Z,21.83
2022-08-23T09:58:50.073Z,20.75
2022-08-23T10:04:21.542Z,21.38
2022-08-23T10:09:43.393Z,21.42
2022-08-23T10:15:05.672Z,17.35
2022-08-23T10:20:50.807Z,21.48
2022-08-23T10:26:25.143Z,19.55
2022-08-23T10:32:02.373Z,24.70
2022-08-23T10:37:33.143Z,14.57
2022-08-23T10:43:19.785Z,18.88
2022-08-23T10:48:52.415Z,22.17
2022-08-23T10:54:30.817Z,22.65
2022-08-23T10:59:53.111Z,19.20
2022-08-23T11:05:26.356Z,26.35
2022-08-23T11:10:56.029Z,24.35
2022-08-23T11:16:30.554Z,21.77
2022-08-23T11:22:14.287Z,24.50
2022-08-23T11:27:41.524Z,24.58
2022-08-23T11:33:34.419Z,19.45
2022-08-23T11:38:56.190Z,23.17
2022-08-23T11:44:24.106Z,29.63
2022-08-23T11:50:06.087Z,23.63
2022-08-23T11:55:49.226Z,24.90
2022-08-23T12:01:13.888Z,26.20
2022-08-23T12:06:51.267Z,32.03
2022-08-23T12:12:13.231Z,29.10
2022-08-23T12:17:35.005Z,30.40
2022-08-23T12:23:15.548Z,28.25
2022-08-23T12:28:43.728Z,29.85
2022-08-23T12:34:20.874Z,40.30
2022-08-23T12:39:52.751Z,32.90
2022-08-23T12:45:22.916Z,26.95
2022-08-23T12:50:51.686Z,30.77
2022-08-23T12:56:31.561Z,34.28
2022-08-23T13:01:54.579Z,33.25
2022-08-23T13:07:22.420Z,33.33
2022-08-23T13:12:44.763Z,32.00
2022-08-23T13:18:06.869Z,35.13
2022-08-23T13:23:28.995Z,36.83
2022-08-23T13:29:06.371Z,30.13
2022-08-23T13:34:47.198Z,42.90
2022-08-23T13:40:18.435Z,35.40
2022-08-23T13:45:51.268Z,33.42
2022-08-23T13:51:28.404Z,38.03
2022-08-23T13:56:53.809Z,37.90
2022-08-23T14:07:38.024Z,38.80
2022-08-23T14:13:00.344Z,34.40
2022-08-23T14:18:22.308Z,48.28
2022-08-23T14:23:44.146Z,36.70
2022-08-23T14:29:05.942Z,53.03
2022-08-23T14:34:29.478Z,41.92
2022-08-23T14:39:51.526Z,39.45
2022-08-23T14:45:15.648Z,47.08
2022-08-23T14:50:38.671Z,44.22
2022-08-23T14:56:20.264Z,48.50
2022-08-23T15:01:42.583Z,41.33
2022-08-23T15:07:20.979Z,58.22
2022-08-23T15:13:12.918Z,52.28
2022-08-23T15:18:25.434Z,36.72
2022-08-23T15:23:47.477Z,49.13
2022-08-23T15:29:09.278Z,46.75
2022-08-23T15:34:33.347Z,56.72
2022-08-23T15:39:57.521Z,52.30
2022-08-23T15:45:19.529Z,54.35
2022-08-23T15:50:44.656Z,47.42
2022-08-23T15:56:13.231Z,57.73
2022-08-23T16:01:35.108Z,58.58
2022-08-23T16:06:58.209Z,47.58
2022-08-23T16:12:20.070Z,54.47
2022-08-23T16:17:41.982Z,50.75
2022-08-23T16:23:04.200Z,46.85
2022-08-23T16:28:26.146Z,42.67
2022-08-23T16:33:48.299Z,34.22
2022-08-23T16:39:11.265Z,26.35
2022-08-23T16:44:34.324Z,14.40
2022-08-23T16:49:56.179Z,20.48
2022-08-23T16:55:18.138Z,17.17
2022-08-23T17:00:40.468Z,15.45
2022-08-23T17:06:02.311Z,25.65
2022-08-23T17:11:24.187Z,16.27
2022-08-23T17:16:52.032Z,17.13
2022-08-23T17:22:13.969Z,15.15
2022-08-23T17:27:37.048Z,12.95
2022-08-23T17:32:59.349Z,13.73
2022-08-23T17:38:21.223Z,19.88
2022-08-23T17:43:43.022Z,17.88
2022-08-23T17:49:06.573Z,16.15
2022-08-23T17:54:28.408Z,26.20
2022-08-23T17:59:50.276Z,19.65
2022-08-23T18:05:12.509Z,17.23
2022-08-23T18:10:34.882Z,14.25
2022-08-23T18:15:56.751Z,19.23
2022-08-23T18:21:18.592Z,16.80
2022-08-23T18:26:42.997Z,19.75
2022-08-23T18:32:06.964Z,17.08
2022-08-23T18:37:28.904Z,17.27
2022-08-23T18:42:50.973Z,17.00
2022-08-23T18:48:12.981Z,12.82
2022-08-23T18:53:35.465Z,13.65
2022-08-23T18:58:57.295Z,10.35
2022-08-23T19:04:19.253Z,9.02
2022-08-23T19:09:41.295Z,10.00
2022-08-23T19:15:04.043Z,16.42
2022-08-23T19:20:25.934Z,13.73
2022-08-23T19:25:48.389Z,10.18
2022-08-23T19:31:10.352Z,14.02
2022-08-23T19:36:46.249Z,10.57
2022-08-23T19:42:11.699Z,9.70
2022-08-23T19:47:34.303Z,11.70
2022-08-23T19:52:58.528Z,11.43
2022-08-23T19:58:20.374Z,13.15
2022-08-23T20:03:42.219Z,9.95
2022-08-23T20:09:05.684Z,10.43
2022-08-23T20:14:29.774Z,12.93
2022-08-23T20:19:51.599Z,7.80
2022-08-23T20:25:13.607Z,12.18
2022-08-23T20:30:36.081Z,12.27
2022-08-23T20:35:57.871Z,11.40
2022-08-23T20:41:20.380Z,9.65
2022-08-23T20:46:42.711Z,10.68
2022-08-23T20:52:05.922Z,11.75
2022-08-23T20:57:28.556Z,14.10
2022-08-23T21:02:53.861Z,9.65
2022-08-23T21:08:16.570Z,7.97
2022-08-23T21:13:38.998Z,13.20
2022-08-23T21:19:01.386Z,9.55
2022-08-23T21:24:23.226Z,10.05
2022-08-23T21:29:45.044Z,12.48
2022-08-23T21:35:07.394Z,9.82
2022-08-23T21:40:30.462Z,10.65
2022-08-23T21:45:52.389Z,15.15
2022-08-23T21:51:14.325Z,10.70
2022-08-23T21:56:37.271Z,9.43
2022-08-23T22:01:59.107Z,9.63
2022-08-23T22:07:21.091Z,10.60
2022-08-23T22:12:43.138Z,8.32
2022-08-23T22:18:05.678Z,8.85
2022-08-23T22:23:29.561Z,13.93
2022-08-23T22:28:51.357Z,9.13
2022-08-23T22:34:13.235Z,11.38
2022-08-23T22:39:35.127Z,13.73
2022-08-23T22:44:56.954Z,9.23
2022-08-23T22:50:18.831Z,11.75
2022-08-23T22:55:41.047Z,13.57
2022-08-23T23:01:05.710Z,9.77
2022-08-23T23:06:33.104Z,11.73
2022-08-23T23:11:54.998Z,10.95
2022-08-23T23:17:16.802Z,9.57
2022-08-23T23:22:38.653Z,9.27
2022-08-23T23:28:01.110Z,7.78
2022-08-23T23:39:51.382Z,9.88
2022-08-23T23:45:13.926Z,8.43
2022-08-23T23:50:39.555Z,12.02
2022-08-23T23:56:09.773Z,8.90
